Time;durP1;ratioP1;P1;durP2;ratioP2;P2;SDS_P1;SDS_P2;PMS_P1;PMS_P2;Temp;Humidity;BMP_temperature;BMP_pressure;BME280_temperature;BME280_humidity;BME280_pressure;Samples;Min_cycle;Max_cycle;Signal;HPM_P1;HPM_P2
2022/04/09 00:01:54;;;;;;;1.67;1.08;;;5.50;83.00;;;;;;5058673;28;20063;-68
2022/04/09 00:04:22;;;;;;;3.47;1.25;;;5.50;83.00;;;;;;5071809;28;20064;-69
2022/04/09 00:06:52;;;;;;;;;;;5.50;83.10;;;;;;5055185;28;20055;-68
2022/04/09 00:09:19;;;;;;;3.13;1.13;;;5.50;83.10;;;;;;5070911;28;20374;-69
2022/04/09 00:11:47;;;;;;;2.17;1.08;;;5.50;83.10;;;;;;5071250;28;20051;-69
2022/04/09 00:14:15;;;;;;;1.83;1.00;;;5.60;83.20;;;;;;5071108;28;20135;-68
2022/04/09 00:16:43;;;;;;;2.67;1.70;;;5.60;83.20;;;;;;5069962;28;20047;-69
2022/04/09 00:19:11;;;;;;;3.10;1.35;;;5.60;83.30;;;;;;5067309;28;20124;-68
2022/04/09 00:21:38;;;;;;;2.67;1.50;;;5.60;83.40;;;;;;5069029;28;20045;-69
2022/04/09 00:24:06;;;;;;;5.07;1.52;;;5.60;83.40;;;;;;5065770;28;20713;-69
2022/04/09 00:26:33;;;;;;;4.07;1.83;;;5.60;83.40;;;;;;5068086;28;20047;-69
2022/04/09 00:28:59;;;;;;;2.80;1.40;;;5.60;83.30;;;;;;5069120;28;20882;-68
2022/04/09 00:31:26;;;;;;;3.03;1.58;;;5.60;83.40;;;;;;5065606;28;20038;-68
2022/04/09 00:33:53;;;;;;;2.83;1.60;;;5.60;83.40;;;;;;5067220;28;20132;-69
2022/04/09 00:36:22;;;;;;;3.90;1.92;;;5.50;83.50;;;;;;5070986;28;20119;-68
2022/04/09 00:38:49;;;;;;;2.47;1.50;;;5.60;83.40;;;;;;5069617;28;20136;-68
2022/04/09 00:41:16;;;;;;;5.45;1.40;;;5.60;83.40;;;;;;5071704;28;20558;-68
2022/04/09 00:43:43;;;;;;;3.42;1.75;;;5.60;83.40;;;;;;5069992;28;20097;-68
2022/04/09 00:46:13;;;;;;;4.35;1.63;;;5.60;83.40;;;;;;5053416;28;20455;-69
2022/04/09 00:48:42;;;;;;;3.17;1.60;;;5.60;83.40;;;;;;5067014;28;20607;-68
2022/04/09 00:51:09;;;;;;;4.65;1.70;;;5.60;83.40;;;;;;5072356;28;20053;-70
2022/04/09 00:53:41;;;;;;;3.88;1.60;;;5.60;83.40;;;;;;5069368;28;20115;-70
2022/04/09 00:56:17;;;;;;;3.72;1.90;;;5.60;83.50;;;;;;5069066;28;20523;-66
2022/04/09 00:58:51;;;;;;;3.88;1.95;;;5.60;83.70;;;;;;5069209;28;20089;-69
2022/04/09 01:01:19;;;;;;;5.15;2.03;;;5.60;83.70;;;;;;5066034;28;20040;-68
2022/04/09 01:03:46;;;;;;;4.80;2.20;;;5.70;83.70;;;;;;5064183;28;20434;-69
2022/04/09 01:06:13;;;;;;;5.25;2.60;;;5.60;83.60;;;;;;5071763;28;20045;-68
2022/04/09 01:08:42;;;;;;;5.80;2.50;;;5.60;83.60;;;;;;5053897;28;20485;-69
2022/04/09 01:11:09;;;;;;;6.57;2.40;;;5.60;83.70;;;;;;5052597;28;20049;-69
2022/04/09 01:13:37;;;;;;;7.05;2.90;;;5.50;83.80;;;;;;5042697;28;20048;-69
2022/04/09 01:16:04;;;;;;;6.85;3.03;;;5.60;83.80;;;;;;5070880;28;20072;-68
2022/04/09 01:18:33;;;;;;;6.28;2.63;;;5.60;83.80;;;;;;5069297;28;20130;-70
2022/04/09 01:21:02;;;;;;;6.00;2.85;;;5.60;83.80;;;;;;5053795;28;20032;-69
2022/04/09 01:23:32;;;;;;;6.88;3.95;;;5.60;83.80;;;;;;5070445;28;20075;-71
2022/04/09 01:26:04;;;;;;;8.10;3.65;;;5.60;83.70;;;;;;5050126;28;20051;-69
2022/04/09 01:28:33;;;;;;;7.30;3.42;;;5.60;83.80;;;;;;5052571;28;20128;-70
2022/04/09 01:31:00;;;;;;;7.28;3.50;;;5.60;83.80;;;;;;5071431;28;20068;-69
2022/04/09 01:33:27;;;;;;;8.10;3.88;;;5.70;83.90;;;;;;5070513;28;20554;-69
2022/04/09 01:35:54;;;;;;;7.90;3.53;;;5.70;83.80;;;;;;5071895;28;20144;-69
2022/04/09 01:38:21;;;;;;;8.80;4.15;;;5.70;83.90;;;;;;5049628;28;20052;-69
2022/04/09 01:40:49;;;;;;;8.57;3.95;;;5.70;84.00;;;;;;5051620;28;20052;-69
2022/04/09 01:43:18;;;;;;;5.97;3.05;;;5.70;84.10;;;;;;5064431;28;20135;-69
2022/04/09 01:45:45;;;;;;;7.20;4.05;;;5.60;84.10;;;;;;5063011;28;20045;-69
2022/04/09 01:48:18;;;;;;;8.90;4.25;;;5.60;84.20;;;;;;5049961;28;20129;-70
2022/04/09 01:50:45;;;;;;;6.95;3.05;;;5.70;84.30;;;;;;5068485;28;20492;-69
2022/04/09 01:53:13;;;;;;;8.88;3.53;;;5.70;84.20;;;;;;5067327;28;20102;-69
2022/04/09 01:55:40;;;;;;;8.18;3.60;;;5.70;84.20;;;;;;5049934;28;20048;-69
2022/04/09 01:58:09;;;;;;;9.73;4.88;;;5.70;84.20;;;;;;5050963;28;20048;-70
2022/04/09 02:00:40;;;;;;;7.90;4.10;;;5.70;84.10;;;;;;5057817;28;20451;-69
2022/04/09 02:03:07;;;;;;;6.15;2.90;;;5.70;84.00;;;;;;5051108;28;20059;-69
2022/04/09 02:05:35;;;;;;;8.90;4.88;;;5.70;84.00;;;;;;5068503;28;20093;-69
2022/04/09 02:08:02;;;;;;;9.05;3.22;;;5.70;84.00;;;;;;5066532;28;20383;-69
2022/04/09 02:10:31;;;;;;;11.25;4.30;;;5.60;84.00;;;;;;5049719;28;20040;-69
2022/04/09 02:13:01;;;;;;;9.20;4.60;;;5.70;83.90;;;;;;5060305;28;20051;-68
2022/04/09 02:15:31;;;;;;;7.57;3.75;;;5.60;84.10;;;;;;5065801;28;20048;-68
2022/04/09 02:17:57;;;;;;;8.00;3.95;;;5.60;84.10;;;;;;5050543;28;20041;-70
2022/04/09 02:20:26;;;;;;;8.05;4.18;;;5.60;84.10;;;;;;5051792;28;20501;-70
2022/04/09 02:22:53;;;;;;;9.05;4.40;;;5.60;84.00;;;;;;5067906;28;20082;-68
2022/04/09 02:25:20;;;;;;;7.25;3.75;;;5.60;83.90;;;;;;5067200;28;20044;-68
2022/04/09 02:27:47;;;;;;;8.07;3.80;;;5.60;83.90;;;;;;5069713;28;20041;-68
2022/04/09 02:30:19;;;;;;;8.60;4.07;;;5.60;83.80;;;;;;5052128;28;20044;-69
2022/04/09 02:32:53;;;;;;;8.07;3.78;;;5.50;83.70;;;;;;5062602;28;20490;-69
2022/04/09 02:35:25;;;;;;;8.00;4.28;;;5.50;83.70;;;;;;5051692;28;20084;-69
2022/04/09 02:37:52;;;;;;;7.32;3.25;;;5.50;83.60;;;;;;5062031;28;20048;-68
2022/04/09 02:40:21;;;;;;;8.02;3.75;;;5.40;83.60;;;;;;5050798;28;20052;-69
2022/04/09 02:42:50;;;;;;;7.75;3.55;;;5.50;83.80;;;;;;5060770;28;20048;-69
2022/04/09 02:45:17;;;;;;;11.30;4.60;;;5.50;83.70;;;;;;5065593;28;20130;-70
2022/04/09 02:47:45;;;;;;;8.35;3.83;;;5.50;83.70;;;;;;5047852;28;20049;-69
2022/04/09 02:50:20;;;;;;;7.63;3.35;;;5.50;83.80;;;;;;5049797;28;20489;-70
2022/04/09 02:52:48;;;;;;;9.07;3.28;;;5.50;83.80;;;;;;5043796;28;20048;-69
2022/04/09 02:55:16;;;;;;;7.40;3.58;;;5.50;83.80;;;;;;5050708;28;20057;-70
2022/04/09 02:57:44;;;;;;;6.72;3.28;;;5.50;83.80;;;;;;5044911;28;20062;-68
2022/04/09 03:00:14;;;;;;;8.68;4.00;;;5.50;83.80;;;;;;5043396;28;20048;-69
2022/04/09 03:02:43;;;;;;;7.95;4.25;;;5.40;83.80;;;;;;5048099;28;20044;-69
2022/04/09 03:05:20;;;;;;;8.95;3.97;;;5.40;83.70;;;;;;5044627;28;20048;-69
2022/04/09 03:07:47;;;;;;;7.38;3.33;;;5.40;83.70;;;;;;5066963;28;20378;-69
2022/04/09 03:10:14;;;;;;;9.50;4.20;;;5.40;83.60;;;;;;5068522;28;20048;-69
2022/04/09 03:12:45;;;;;;;7.53;3.08;;;5.40;83.60;;;;;;5067339;28;20055;-69
2022/04/09 03:15:12;;;;;;;8.50;4.82;;;5.40;83.50;;;;;;5067543;28;20064;-67
2022/04/09 03:17:39;;;;;;;6.55;3.55;;;5.40;83.60;;;;;;5067791;28;20098;-68
2022/04/09 03:20:08;;;;;;;7.43;4.45;;;5.40;83.60;;;;;;5069108;28;20060;-68
2022/04/09 03:22:37;;;;;;;9.15;4.05;;;5.40;83.50;;;;;;5049059;28;20040;-70
2022/04/09 03:25:05;;;;;;;9.73;4.15;;;5.40;83.40;;;;;;5046608;28;20047;-69
2022/04/09 03:27:34;;;;;;;10.02;4.05;;;5.40;83.30;;;;;;5040706;28;20125;-69
2022/04/09 03:30:02;;;;;;;7.60;3.53;;;5.40;83.30;;;;;;5049493;28;20052;-69
2022/04/09 03:32:36;;;;;;;9.30;4.68;;;5.30;83.30;;;;;;5046344;28;20083;-69
2022/04/09 03:35:04;;;;;;;8.93;3.88;;;5.30;83.50;;;;;;5040798;28;20127;-71
2022/04/09 03:37:32;;;;;;;8.10;3.97;;;5.30;83.60;;;;;;5041926;28;20064;-69
2022/04/09 03:40:02;;;;;;;6.55;3.58;;;5.30;83.70;;;;;;5040000;28;20196;-69
2022/04/09 03:42:29;;;;;;;10.82;4.38;;;5.30;83.60;;;;;;5046368;28;20048;-68
2022/04/09 03:44:56;;;;;;;9.55;3.67;;;5.30;83.60;;;;;;5037307;28;20071;-68
2022/04/09 03:47:23;;;;;;;8.32;3.88;;;5.20;83.50;;;;;;5042053;28;20056;-69
2022/04/09 03:49:51;;;;;;;8.07;4.03;;;5.20;83.50;;;;;;5064931;28;20139;-68
2022/04/09 03:52:19;;;;;;;7.60;3.80;;;5.20;83.40;;;;;;5047967;28;20127;-69
2022/04/09 03:54:46;;;;;;;9.52;4.57;;;5.20;83.40;;;;;;5047201;28;20048;-69
2022/04/09 03:57:14;;;;;;;8.50;4.38;;;5.20;83.40;;;;;;5046583;28;20036;-69
2022/04/09 03:59:48;;;;;;;8.25;3.70;;;5.20;83.40;;;;;;5045961;28;20055;-69
2022/04/09 04:02:16;;;;;;;8.07;4.38;;;5.20;83.30;;;;;;5044880;28;20231;-69
2022/04/09 04:04:44;;;;;;;9.55;3.50;;;5.20;83.30;;;;;;5046945;28;20076;-69
2022/04/09 04:07:13;;;;;;;8.05;4.07;;;5.10;83.40;;;;;;5065515;28;20048;-69
2022/04/09 04:09:42;;;;;;;10.32;3.92;;;5.10;83.40;;;;;;5048219;28;20049;-67
2022/04/09 04:12:10;;;;;;;7.50;3.70;;;5.10;83.50;;;;;;5044604;28;20159;-69
2022/04/09 04:14:39;;;;;;;10.55;4.20;;;5.10;83.60;;;;;;5048906;28;20045;-68
2022/04/09 04:17:07;;;;;;;7.22;3.88;;;5.10;83.70;;;;;;5066332;28;20048;-70
2022/04/09 04:19:36;;;;;;;9.35;4.30;;;5.20;83.70;;;;;;5043318;28;20044;-70
2022/04/09 04:22:05;;;;;;;9.38;4.15;;;5.20;83.70;;;;;;5066301;28;20059;-69
2022/04/09 04:24:37;;;;;;;7.97;3.43;;;5.20;83.70;;;;;;5050160;28;20063;-69
2022/04/09 04:27:05;;;;;;;9.45;3.97;;;5.20;83.60;;;;;;5066982;28;20517;-69
2022/04/09 04:29:33;;;;;;;10.57;4.22;;;5.20;83.50;;;;;;5041705;28;20051;-69
2022/04/09 04:32:02;;;;;;;8.07;3.80;;;5.20;83.50;;;;;;5067910;28;20052;-70
2022/04/09 04:34:30;;;;;;;7.03;3.67;;;5.20;83.50;;;;;;5047827;28;20070;-69
2022/04/09 04:36:57;;;;;;;8.00;3.80;;;5.20;83.50;;;;;;5061991;28;20132;-70
2022/04/09 04:39:25;;;;;;;8.75;3.88;;;5.20;83.60;;;;;;5054386;28;20048;-69
2022/04/09 04:41:53;;;;;;;7.03;3.72;;;5.20;83.60;;;;;;5054956;28;20374;-69
2022/04/09 04:44:21;;;;;;;7.93;3.58;;;5.20;83.50;;;;;;5039848;28;20052;-70
2022/04/09 04:46:52;;;;;;;8.32;3.40;;;5.30;83.50;;;;;;5059611;28;20052;-68
2022/04/09 04:49:24;;;;;;;;;;;5.20;83.40;;;;;;5045106;28;20044;-68
2022/04/09 04:51:56;;;;;;;5.35;2.97;;;5.30;83.20;;;;;;5036493;28;19997;-69
2022/04/09 04:54:23;;;;;;;7.45;3.58;;;5.30;83.20;;;;;;5047000;28;20040;-69
2022/04/09 04:56:51;;;;;;;8.80;3.72;;;5.30;83.20;;;;;;5044848;28;20049;-69
2022/04/09 04:59:19;;;;;;;6.45;3.10;;;5.30;83.00;;;;;;5057612;28;20113;-69
2022/04/09 05:01:46;;;;;;;8.02;2.78;;;5.30;82.90;;;;;;5060764;28;20070;-69
2022/04/09 05:04:15;;;;;;;9.48;2.97;;;5.30;82.80;;;;;;5050563;28;20087;-70
2022/04/09 05:06:53;;;;;;;6.53;3.78;;;5.30;82.80;;;;;;5051921;28;20053;-69
2022/04/09 05:09:23;;;;;;;6.93;3.33;;;5.30;82.70;;;;;;5064544;28;20052;-69
2022/04/09 05:11:54;;;;;;;9.25;3.35;;;5.30;82.60;;;;;;5052029;28;20048;-68
2022/04/09 05:14:27;;;;;;;5.57;2.10;;;5.30;82.50;;;;;;5047363;28;20040;-68
2022/04/09 05:16:59;;;;;;;6.70;2.85;;;5.30;82.50;;;;;;5049145;28;20512;-68
2022/04/09 05:19:28;;;;;;;6.03;2.65;;;5.30;82.50;;;;;;5049157;28;20048;-71
2022/04/09 05:22:06;;;;;;;4.85;2.28;;;5.30;82.60;;;;;;5044570;28;20068;-69
2022/04/09 05:24:38;;;;;;;4.40;2.25;;;5.30;82.40;;;;;;5046190;28;20049;-69
2022/04/09 05:27:05;;;;;;;5.68;2.80;;;5.40;82.50;;;;;;5060336;28;20048;-69
2022/04/09 05:29:35;;;;;;;6.23;2.27;;;5.40;82.60;;;;;;5042220;28;20125;-70
2022/04/09 05:32:04;;;;;;;5.70;2.08;;;5.40;82.40;;;;;;5044349;28;20466;-69
2022/04/09 05:34:31;;;;;;;8.77;2.13;;;5.40;82.40;;;;;;5042494;28;20055;-70
2022/04/09 05:36:58;;;;;;;6.85;2.35;;;5.40;82.50;;;;;;5044959;28;20124;-71
2022/04/09 05:39:26;;;;;;;4.20;2.35;;;5.40;82.50;;;;;;5041791;28;20048;-70
2022/04/09 05:41:55;;;;;;;6.43;2.08;;;5.40;82.30;;;;;;5041721;28;20044;-69
2022/04/09 05:44:22;;;;;;;4.25;2.40;;;5.40;82.30;;;;;;5044280;28;20044;-70
2022/04/09 05:46:49;;;;;;;4.47;1.80;;;5.40;82.40;;;;;;5047660;28;20142;-69
2022/04/09 05:49:16;;;;;;;4.90;2.53;;;5.50;82.50;;;;;;5062162;28;20402;-68
2022/04/09 05:51:45;;;;;;;8.55;2.42;;;5.50;82.50;;;;;;5054565;28;20044;-70
2022/04/09 05:54:13;;;;;;;7.55;2.10;;;5.60;82.40;;;;;;5045493;28;20036;-68
2022/04/09 05:56:44;;;;;;;7.00;2.67;;;5.50;82.40;;;;;;5043678;28;20076;-67
2022/04/09 05:59:12;;;;;;;9.02;1.95;;;5.60;82.40;;;;;;5057862;28;20045;-68
2022/04/09 06:01:39;;;;;;;7.75;2.58;;;5.60;82.40;;;;;;5058681;28;20048;-69
2022/04/09 06:04:07;;;;;;;6.70;2.47;;;5.60;82.20;;;;;;5045131;28;20040;-68
2022/04/09 06:06:34;;;;;;;7.30;2.95;;;5.60;82.10;;;;;;5044907;28;20049;-68
2022/04/09 06:09:06;;;;;;;3.75;2.08;;;5.70;82.00;;;;;;5042428;28;20041;-70
2022/04/09 06:11:50;;;;;;;5.07;1.85;;;5.70;81.90;;;;;;5046296;28;20060;-69
2022/04/09 06:14:22;;;;;;;2.80;1.42;;;5.70;81.90;;;;;;5045047;28;20122;-69
2022/04/09 06:16:50;;;;;;;3.72;1.80;;;5.70;82.10;;;;;;5056211;28;20053;-70
2022/04/09 06:19:17;;;;;;;10.13;2.97;;;5.70;82.10;;;;;;5044679;28;20045;-70
2022/04/09 06:21:45;;;;;;;8.43;2.35;;;5.70;82.00;;;;;;5045630;28;20074;-69
2022/04/09 06:24:16;;;;;;;4.45;1.65;;;5.70;81.90;;;;;;5046950;28;20044;-68
2022/04/09 06:26:44;;;;;;;4.82;1.77;;;5.70;81.90;;;;;;5062908;28;20207;-68
2022/04/09 06:29:12;;;;;;;4.70;1.80;;;5.80;81.70;;;;;;5052791;28;20075;-69
2022/04/09 06:31:41;;;;;;;4.63;1.70;;;5.90;81.30;;;;;;5067086;28;20052;-68
2022/04/09 06:34:08;;;;;;;4.82;1.90;;;5.90;81.10;;;;;;5049094;28;20041;-68
2022/04/09 06:36:37;;;;;;;5.47;1.40;;;5.90;81.20;;;;;;5043645;28;20052;-67
2022/04/09 06:39:04;;;;;;;8.77;2.58;;;6.00;81.00;;;;;;5046808;28;20080;-68
2022/04/09 06:41:36;;;;;;;4.95;1.73;;;6.00;81.00;;;;;;5043253;28;20506;-69
2022/04/09 06:44:06;;;;;;;5.47;1.88;;;6.00;81.00;;;;;;5056208;28;20040;-69
2022/04/09 06:46:45;;;;;;;4.22;2.13;;;6.00;81.00;;;;;;5037233;28;20060;-70
2022/04/09 06:49:45;;;;;;;6.53;2.40;;;6.00;81.00;;;;;;5052395;28;20053;-69
2022/04/09 06:52:17;;;;;;;9.27;2.80;;;6.10;81.20;;;;;;5038013;28;20048;-69
2022/04/09 06:55:20;;;;;;;8.82;2.50;;;6.10;81.20;;;;;;5042321;28;20049;-69
2022/04/09 06:57:49;;;;;;;4.47;1.83;;;6.20;81.10;;;;;;5039501;28;20053;-68
2022/04/09 07:00:25;;;;;;;7.53;2.50;;;6.10;81.20;;;;;;5043543;28;20798;-69
2022/04/09 07:02:53;;;;;;;6.65;2.22;;;6.10;81.10;;;;;;5047755;28;20574;-69
2022/04/09 07:05:20;;;;;;;5.57;2.30;;;6.20;81.10;;;;;;5064003;28;20501;-68
2022/04/09 07:07:49;;;;;;;5.50;2.25;;;6.20;81.10;;;;;;5060377;28;20059;-68
2022/04/09 07:10:16;;;;;;;4.07;1.80;;;6.20;81.10;;;;;;5062657;28;20045;-68
2022/04/09 07:12:43;;;;;;;4.45;2.00;;;6.30;81.20;;;;;;5066027;28;20056;-68
2022/04/09 07:15:11;;;;;;;8.68;1.90;;;6.30;81.00;;;;;;5059910;28;20047;-69
2022/04/09 07:17:38;;;;;;;10.93;2.35;;;6.30;81.00;;;;;;5057957;28;20044;-69
2022/04/09 07:20:08;;;;;;;4.55;1.88;;;6.40;81.00;;;;;;5055188;28;20711;-68
2022/04/09 07:22:37;;;;;;;5.53;2.08;;;6.40;80.70;;;;;;5059602;28;20033;-69
2022/04/09 07:25:06;;;;;;;8.95;2.38;;;6.50;80.60;;;;;;5039403;28;20131;-69
2022/04/09 07:27:37;;;;;;;4.53;2.33;;;6.60;80.40;;;;;;5055461;28;20646;-69
2022/04/09 07:30:06;;;;;;;4.32;1.33;;;6.60;80.10;;;;;;5060351;28;20094;-68
2022/04/09 07:32:32;;;;;;;5.72;1.35;;;6.70;79.90;;;;;;5063377;28;20071;-69
2022/04/09 07:34:59;;;;;;;4.35;1.30;;;6.70;79.70;;;;;;5067325;28;20053;-69
2022/04/09 07:37:28;;;;;;;4.05;1.30;;;6.60;79.40;;;;;;5059928;28;20567;-69
2022/04/09 07:39:55;;;;;;;5.35;1.25;;;6.70;79.40;;;;;;5067145;28;20059;-68
2022/04/09 07:42:23;;;;;;;3.88;1.40;;;6.70;79.40;;;;;;5069436;28;20049;-69
2022/04/09 07:44:50;;;;;;;1.38;0.95;;;6.70;79.20;;;;;;5063940;28;20045;-68
2022/04/09 07:47:18;;;;;;;2.63;1.10;;;6.70;79.00;;;;;;5062701;28;20156;-69
2022/04/09 07:49:46;;;;;;;4.03;0.75;;;6.70;79.20;;;;;;5062533;28;20051;-69
2022/04/09 07:52:14;;;;;;;3.75;1.13;;;6.70;79.00;;;;;;5062294;28;20100;-68
2022/04/09 07:54:42;;;;;;;4.68;1.70;;;6.70;78.70;;;;;;5061526;28;20045;-69
2022/04/09 07:57:09;;;;;;;2.67;1.10;;;6.80;78.80;;;;;;5061829;28;20079;-68
2022/04/09 07:59:36;;;;;;;5.15;1.38;;;6.90;78.80;;;;;;5058139;28;20033;-70
2022/04/09 08:02:03;;;;;;;1.55;0.80;;;7.10;78.40;;;;;;5057849;28;20421;-69
2022/04/09 08:04:30;;;;;;;3.08;0.60;;;7.30;77.80;;;;;;5063039;28;20155;-69
2022/04/09 08:06:57;;;;;;;1.63;0.77;;;7.50;77.60;;;;;;5063257;28;20417;-69
2022/04/09 08:09:24;;;;;;;2.85;0.93;;;7.70;77.30;;;;;;5059326;28;20846;-69
2022/04/09 08:11:53;;;;;;;6.35;1.25;;;7.80;77.00;;;;;;5061261;28;20041;-71
2022/04/09 08:14:20;;;;;;;1.98;0.80;;;7.90;77.60;;;;;;5062389;28;20684;-69
2022/04/09 08:16:47;;;;;;;2.92;1.60;;;8.10;77.60;;;;;;5064324;28;20132;-69
2022/04/09 08:19:15;;;;;;;2.08;0.88;;;8.20;77.60;;;;;;5059199;28;20115;-68
2022/04/09 08:21:41;;;;;;;8.38;1.85;;;8.30;77.70;;;;;;5057570;28;20044;-69
2022/04/09 08:24:09;;;;;;;5.00;1.33;;;8.30;77.20;;;;;;5063975;28;20119;-69
2022/04/09 08:26:36;;;;;;;5.10;1.38;;;8.20;76.90;;;;;;5064311;28;20037;-70
2022/04/09 08:29:05;;;;;;;2.30;1.20;;;8.10;76.90;;;;;;5062172;28;20055;-69
2022/04/09 08:31:32;;;;;;;6.43;1.35;;;8.00;77.10;;;;;;5066333;28;21934;-70
2022/04/09 08:33:59;;;;;;;5.32;1.30;;;7.90;76.70;;;;;;5063817;28;20148;-70
2022/04/09 08:36:26;;;;;;;4.40;1.10;;;7.70;76.80;;;;;;5061242;28;20447;-70
2022/04/09 08:38:55;;;;;;;4.90;1.48;;;7.60;77.10;;;;;;5062858;28;20088;-68
2022/04/09 08:41:22;;;;;;;4.78;1.25;;;7.50;77.30;;;;;;5062812;28;20046;-68
2022/04/09 08:43:49;;;;;;;3.50;1.00;;;7.50;77.60;;;;;;5063688;28;20049;-68
2022/04/09 08:46:17;;;;;;;4.43;1.17;;;7.60;77.70;;;;;;5061860;28;20045;-70
2022/04/09 08:48:49;;;;;;;2.25;1.45;;;7.50;78.00;;;;;;5060111;28;20117;-69
2022/04/09 08:51:16;;;;;;;4.57;0.80;;;7.60;78.20;;;;;;5060596;28;20041;-69
2022/04/09 08:53:44;;;;;;;3.45;1.20;;;7.60;78.30;;;;;;5062183;28;20067;-69
2022/04/09 08:56:12;;;;;;;3.67;1.05;;;7.60;78.20;;;;;;5059979;28;20040;-70
2022/04/09 08:58:39;;;;;;;3.60;0.88;;;7.60;78.10;;;;;;5062761;28;20163;-69
2022/04/09 09:01:06;;;;;;;2.88;0.85;;;7.50;77.70;;;;;;5066742;28;20364;-71
2022/04/09 09:03:35;;;;;;;6.88;1.27;;;7.60;77.60;;;;;;5067930;28;20041;-70
2022/04/09 09:06:19;;;;;;;4.13;1.83;;;7.50;77.50;;;;;;5062217;28;20063;-69
2022/04/09 09:08:46;;;;;;;5.00;1.30;;;7.50;77.60;;;;;;5069551;28;20044;-70
2022/04/09 09:11:13;;;;;;;5.22;0.95;;;7.50;77.70;;;;;;5069008;28;20036;-69
2022/04/09 09:13:47;;;;;;;3.88;1.60;;;7.40;78.10;;;;;;5065636;28;20056;-69
2022/04/09 09:16:25;;;;;;;3.33;1.35;;;7.40;78.20;;;;;;5065990;28;20072;-69
2022/04/09 09:18:54;;;;;;;11.07;3.17;;;7.50;78.50;;;;;;5065992;28;20041;-68
2022/04/09 09:21:23;;;;;;;10.07;2.80;;;7.50;78.60;;;;;;5058855;28;20063;-69
2022/04/09 09:23:51;;;;;;;6.35;1.52;;;7.40;78.50;;;;;;5063105;28;20589;-68
2022/04/09 09:26:22;;;;;;;6.15;1.50;;;7.40;78.60;;;;;;5060172;28;20048;-70
2022/04/09 09:28:56;;;;;;;;;;;7.50;78.50;;;;;;5063941;28;20040;-69
2022/04/09 09:31:41;;;;;;;8.10;1.73;;;7.60;78.70;;;;;;5065741;28;19920;-69
2022/04/09 09:34:12;;;;;;;5.78;1.67;;;7.70;78.90;;;;;;5063504;28;20132;-70
2022/04/09 09:36:40;;;;;;;5.40;1.38;;;7.80;78.70;;;;;;5061335;28;20044;-69
2022/04/09 09:39:08;;;;;;;3.63;1.52;;;7.90;78.70;;;;;;5064754;28;20131;-69
2022/04/09 09:41:36;;;;;;;5.53;1.20;;;8.00;78.60;;;;;;5066326;28;20047;-69
2022/04/09 09:44:04;;;;;;;5.13;1.38;;;8.00;78.20;;;;;;5066630;28;20041;-71
2022/04/09 09:46:32;;;;;;;8.32;1.20;;;8.00;77.70;;;;;;5065726;28;20036;-70
2022/04/09 09:49:00;;;;;;;4.95;1.27;;;8.00;77.90;;;;;;5065239;28;20159;-70
2022/04/09 09:51:29;;;;;;;3.75;1.00;;;7.90;77.90;;;;;;5068818;28;20049;-71
2022/04/09 09:54:05;;;;;;;4.65;0.98;;;7.80;77.70;;;;;;5066330;28;20127;-70
2022/04/09 09:56:38;;;;;;;2.75;1.10;;;7.70;77.60;;;;;;5064187;28;20044;-70
2022/04/09 09:59:06;;;;;;;4.43;1.10;;;7.60;77.70;;;;;;5062272;28;20489;-69
2022/04/09 10:01:37;;;;;;;6.63;1.35;;;7.60;78.20;;;;;;5039455;28;20398;-70
2022/04/09 10:04:06;;;;;;;5.55;1.05;;;7.50;78.60;;;;;;5064070;28;20044;-69
2022/04/09 10:06:36;;;;;;;4.32;1.02;;;7.50;78.70;;;;;;5053712;28;20057;-70
2022/04/09 10:09:06;;;;;;;3.20;1.00;;;7.50;79.20;;;;;;5057027;28;20051;-69
2022/04/09 10:11:36;;;;;;;3.95;0.80;;;7.70;79.30;;;;;;5059877;28;20066;-70
2022/04/09 10:14:04;;;;;;;7.72;1.45;;;7.80;79.30;;;;;;5054983;28;20116;-70
2022/04/09 10:16:34;;;;;;;3.80;1.40;;;8.00;80.00;;;;;;5053783;28;20040;-70
2022/04/09 10:19:02;;;;;;;3.13;0.80;;;8.10;80.20;;;;;;5064194;28;20119;-70
2022/04/09 10:21:30;;;;;;;4.95;1.00;;;8.30;80.10;;;;;;5069027;28;20102;-70
2022/04/09 10:24:01;;;;;;;3.33;1.30;;;8.50;79.90;;;;;;5064831;28;20044;-70
2022/04/09 10:26:30;;;;;;;8.98;1.42;;;8.60;80.20;;;;;;5064164;28;20086;-71
2022/04/09 10:29:05;;;;;;;6.93;1.50;;;8.80;79.80;;;;;;5066573;28;20128;-69
2022/04/09 10:31:37;;;;;;;4.93;1.30;;;8.90;79.40;;;;;;5062848;28;20043;-71
2022/04/09 10:34:06;;;;;;;3.28;1.10;;;9.00;79.40;;;;;;5062397;28;20087;-70
2022/04/09 10:37:08;;;;;;;3.30;1.00;;;9.10;79.00;;;;;;5059699;28;20353;-69
2022/04/09 10:39:46;;;;;;;4.68;1.10;;;9.20;78.40;;;;;;4977846;28;20097;-70
2022/04/09 10:42:51;;;;;;;4.88;1.05;;;9.30;76.90;;;;;;5050486;28;20051;-69
2022/04/09 10:45:18;;;;;;;4.40;1.00;;;9.50;76.30;;;;;;5068760;28;20040;-70
2022/04/09 10:48:10;;;;;;;3.38;1.13;;;9.50;75.20;;;;;;5069744;28;20489;-69
2022/04/09 10:50:57;;;;;;;3.88;1.60;;;9.50;73.50;;;;;;5070614;28;20057;-69
2022/04/09 10:53:26;;;;;;;1.73;0.52;;;9.30;72.00;;;;;;5057926;28;20045;-69
2022/04/09 10:56:17;;;;;;;1.55;0.47;;;8.80;69.40;;;;;;5069460;28;20047;-70
2022/04/09 10:59:33;;;;;;;3.72;0.52;;;8.50;70.40;;;;;;5066397;28;20043;-69
2022/04/09 11:02:02;;;;;;;2.22;0.60;;;8.20;71.60;;;;;;5001229;28;20261;-69
2022/04/09 11:04:41;;;;;;;7.32;1.02;;;8.00;72.80;;;;;;5047108;28;20057;-68
2022/04/09 11:07:09;;;;;;;6.13;1.00;;;7.90;73.30;;;;;;5066246;28;20064;-71
2022/04/09 11:09:51;;;;;;;5.72;1.48;;;7.90;73.70;;;;;;5068837;28;20091;-68
2022/04/09 11:12:21;;;;;;;6.18;1.10;;;7.80;74.10;;;;;;5067609;28;20036;-69
2022/04/09 11:14:50;;;;;;;5.65;1.73;;;7.90;75.00;;;;;;5057669;28;20063;-69
2022/04/09 11:17:28;;;;;;;8.57;1.50;;;8.00;75.60;;;;;;5060949;28;20047;-69
2022/04/09 11:19:56;;;;;;;8.20;2.38;;;8.10;75.90;;;;;;5067652;28;20086;-67
2022/04/09 11:22:31;;;;;;;7.75;1.95;;;8.30;76.00;;;;;;5068055;28;20137;-70
2022/04/09 11:24:58;;;;;;;8.02;1.90;;;8.40;74.90;;;;;;5069295;28;20047;-70
2022/04/09 11:27:28;;;;;;;4.88;0.82;;;8.50;74.40;;;;;;5067469;28;20056;-68
2022/04/09 11:29:56;;;;;;;6.47;1.27;;;8.60;74.60;;;;;;5067140;28;20048;-69
2022/04/09 11:32:23;;;;;;;3.95;0.57;;;8.60;73.60;;;;;;5067515;28;20091;-70
2022/04/09 11:34:52;;;;;;;5.53;1.58;;;8.60;73.70;;;;;;5039204;28;20054;-70
2022/04/09 11:37:19;;;;;;;5.72;1.13;;;8.70;74.70;;;;;;5062763;28;20043;-70
2022/04/09 11:39:48;;;;;;;1.30;0.32;;;8.80;75.20;;;;;;5066978;28;20064;-70
2022/04/09 11:42:15;;;;;;;2.58;0.55;;;8.90;74.70;;;;;;5067199;28;20041;-69
2022/04/09 11:44:44;;;;;;;2.90;0.60;;;9.10;74.50;;;;;;5065892;28;20094;-70
2022/04/09 11:47:13;;;;;;;4.72;0.60;;;9.20;74.70;;;;;;5068095;28;20052;-69
2022/04/09 11:49:41;;;;;;;1.70;0.40;;;9.20;74.80;;;;;;5068524;28;20048;-70
2022/04/09 11:52:09;;;;;;;2.53;0.70;;;9.40;74.70;;;;;;5064318;28;20482;-69
2022/04/09 11:54:38;;;;;;;2.83;0.45;;;9.40;74.30;;;;;;5069612;28;20042;-70
2022/04/09 11:57:11;;;;;;;4.70;0.40;;;9.50;73.90;;;;;;5068473;28;20037;-70
2022/04/09 11:59:38;;;;;;;1.15;0.50;;;9.50;73.80;;;;;;5071283;28;20568;-70
2022/04/09 12:02:19;;;;;;;5.40;0.70;;;9.60;73.40;;;;;;5068489;28;20066;-70
2022/04/09 12:04:47;;;;;;;2.60;0.35;;;9.80;72.50;;;;;;5070695;28;20048;-69
2022/04/09 12:07:14;;;;;;;3.92;0.60;;;9.90;72.40;;;;;;5070553;28;20074;-69
2022/04/09 12:09:42;;;;;;;3.72;0.47;;;9.90;71.80;;;;;;5072312;28;20432;-70
2022/04/09 12:12:09;;;;;;;1.70;0.52;;;10.00;70.40;;;;;;5068916;28;20139;-68
2022/04/09 12:14:37;;;;;;;5.57;1.05;;;10.00;69.90;;;;;;5071232;28;20124;-69
2022/04/09 12:17:13;;;;;;;4.40;1.02;;;9.90;68.60;;;;;;5071423;28;20040;-70
2022/04/09 12:19:43;;;;;;;1.50;0.70;;;9.80;68.60;;;;;;5069388;28;20032;-70
2022/04/09 12:22:15;;;;;;;1.20;0.40;;;9.60;68.60;;;;;;5070427;28;20051;-70
2022/04/09 12:24:53;;;;;;;1.77;0.82;;;9.40;68.90;;;;;;5072349;28;20044;-70
2022/04/09 12:27:22;;;;;;;2.25;0.38;;;9.20;67.90;;;;;;5073065;28;20041;-71
2022/04/09 12:29:52;;;;;;;2.95;0.55;;;9.10;67.80;;;;;;5072206;28;20055;-69
2022/04/09 12:32:24;;;;;;;0.40;0.30;;;8.90;68.10;;;;;;5073354;28;20045;-69
2022/04/09 12:35:09;;;;;;;4.15;0.60;;;8.90;68.40;;;;;;5070232;28;20131;-69
2022/04/09 12:37:44;;;;;;;2.13;0.40;;;8.90;69.00;;;;;;5072346;28;20044;-69
2022/04/09 12:40:16;;;;;;;4.85;0.55;;;8.90;69.10;;;;;;5071613;28;20118;-68
2022/04/09 12:42:43;;;;;;;2.25;0.50;;;8.90;69.40;;;;;;5070070;28;20040;-70
2022/04/09 12:45:16;;;;;;;3.20;0.55;;;8.80;70.10;;;;;;5072201;28;20040;-70
2022/04/09 12:47:54;;;;;;;1.77;0.50;;;8.80;70.30;;;;;;5069931;28;20064;-69
2022/04/09 12:50:27;;;;;;;3.17;0.50;;;8.80;70.60;;;;;;5071976;28;20041;-69
2022/04/09 12:52:55;;;;;;;2.15;0.50;;;8.70;71.30;;;;;;5070466;28;20470;-69
2022/04/09 12:55:25;;;;;;;1.52;0.55;;;8.70;71.40;;;;;;5070302;28;20508;-68
2022/04/09 12:57:52;;;;;;;1.85;0.47;;;8.60;71.50;;;;;;5069070;28;20102;-70
2022/04/09 13:00:19;;;;;;;4.25;1.05;;;8.50;71.40;;;;;;5068659;28;20039;-70
2022/04/09 13:02:49;;;;;;;0.60;0.40;;;8.40;71.70;;;;;;5070595;28;20060;-69
2022/04/09 13:05:17;;;;;;;3.20;0.50;;;8.40;71.90;;;;;;5070603;28;20033;-69
2022/04/09 13:07:45;;;;;;;2.83;0.32;;;8.50;73.10;;;;;;5071594;28;20049;-70
2022/04/09 13:10:14;;;;;;;4.70;0.57;;;8.60;73.10;;;;;;5070179;28;20059;-71
2022/04/09 13:12:41;;;;;;;3.78;0.45;;;8.60;73.60;;;;;;5070370;28;20402;-69